sensor_id;sensor_type;location;lat;lon;timestamp;P1;durP1;ratioP1;P2;durP2;ratioP2
51866;SDS011;52862;52.504;13.480;2024-01-10T00:01:57;128.90;;;43.80;;
51866;SDS011;52862;52.504;13.480;2024-01-10T00:04:24;138.37;;;43.83;;
51866;SDS011;52862;52.504;13.480;2024-01-10T00:06:50;154.20;;;43.43;;
51866;SDS011;52862;52.504;13.480;2024-01-10T00:09:17;132.27;;;40.37;;
51866;SDS011;52862;52.504;13.480;2024-01-10T00:11:44;120.03;;;41.00;;
51866;SDS011;52862;52.504;13.480;2024-01-10T00:14:12;143.53;;;43.37;;
51866;SDS011;52862;52.504;13.480;2024-01-10T00:16:39;144.30;;;45.37;;
51866;SDS011;52862;52.504;13.480;2024-01-10T00:19:06;130.73;;;43.53;;
51866;SDS011;52862;52.504;13.480;2024-01-10T00:21:33;124.27;;;42.23;;
51866;SDS011;52862;52.504;13.480;2024-01-10T00:24:01;133.13;;;42.93;;
51866;SDS011;52862;52.504;13.480;2024-01-10T00:26:28;138.70;;;41.63;;
51866;SDS011;52862;52.504;13.480;2024-01-10T00:28:55;134.67;;;43.83;;
51866;SDS011;52862;52.504;13.480;2024-01-10T00:31:30;146.73;;;43.10;;
51866;SDS011;52862;52.504;13.480;2024-01-10T00:33:58;129.53;;;43.07;;
51866;SDS011;52862;52.504;13.480;2024-01-10T00:36:25;139.97;;;40.30;;
51866;SDS011;52862;52.504;13.480;2024-01-10T00:38:51;137.63;;;43.57;;
51866;SDS011;52862;52.504;13.480;2024-01-10T00:41:18;135.67;;;43.87;;
51866;SDS011;52862;52.504;13.480;2024-01-10T00:43:45;120.60;;;41.90;;
51866;SDS011;52862;52.504;13.480;2024-01-10T00:46:12;164.20;;;60.17;;
51866;SDS011;52862;52.504;13.480;2024-01-10T00:48:39;165.33;;;51.60;;
51866;SDS011;52862;52.504;13.480;2024-01-10T00:51:06;143.50;;;46.50;;
51866;SDS011;52862;52.504;13.480;2024-01-10T00:53:34;157.77;;;47.73;;
51866;SDS011;52862;52.504;13.480;2024-01-10T00:56:01;132.03;;;43.50;;
51866;SDS011;52862;52.504;13.480;2024-01-10T00:58:27;141.57;;;47.53;;
51866;SDS011;52862;52.504;13.480;2024-01-10T01:00:54;137.50;;;45.73;;
51866;SDS011;52862;52.504;13.480;2024-01-10T01:03:21;144.27;;;44.93;;
51866;SDS011;52862;52.504;13.480;2024-01-10T01:05:48;154.70;;;47.90;;
51866;SDS011;52862;52.504;13.480;2024-01-10T01:08:15;120.73;;;41.93;;
51866;SDS011;52862;52.504;13.480;2024-01-10T01:10:42;145.60;;;43.93;;
51866;SDS011;52862;52.504;13.480;2024-01-10T01:13:09;144.70;;;44.03;;
51866;SDS011;52862;52.504;13.480;2024-01-10T01:15:36;146.70;;;44.93;;
51866;SDS011;52862;52.504;13.480;2024-01-10T01:18:02;125.47;;;43.83;;
51866;SDS011;52862;52.504;13.480;2024-01-10T01:20:29;136.13;;;45.60;;
51866;SDS011;52862;52.504;13.480;2024-01-10T01:22:57;136.37;;;43.97;;
51866;SDS011;52862;52.504;13.480;2024-01-10T01:25:24;136.53;;;45.33;;
51866;SDS011;52862;52.504;13.480;2024-01-10T01:27:51;146.97;;;44.10;;
51866;SDS011;52862;52.504;13.480;2024-01-10T01:30:17;135.77;;;44.83;;
51866;SDS011;52862;52.504;13.480;2024-01-10T01:32:47;141.10;;;43.33;;
51866;SDS011;52862;52.504;13.480;2024-01-10T01:35:14;152.77;;;41.60;;
51866;SDS011;52862;52.504;13.480;2024-01-10T01:37:47;131.07;;;44.63;;
51866;SDS011;52862;52.504;13.480;2024-01-10T01:40:14;145.50;;;46.37;;
51866;SDS011;52862;52.504;13.480;2024-01-10T01:42:43;141.47;;;47.60;;
51866;SDS011;52862;52.504;13.480;2024-01-10T01:45:10;149.90;;;47.50;;
51866;SDS011;52862;52.504;13.480;2024-01-10T01:47:38;138.77;;;44.23;;
51866;SDS011;52862;52.504;13.480;2024-01-10T01:50:06;146.93;;;45.20;;
51866;SDS011;52862;52.504;13.480;2024-01-10T01:52:34;135.63;;;43.03;;
51866;SDS011;52862;52.504;13.480;2024-01-10T01:55:01;130.20;;;43.27;;
51866;SDS011;52862;52.504;13.480;2024-01-10T01:57:29;139.50;;;44.27;;
51866;SDS011;52862;52.504;13.480;2024-01-10T01:59:56;139.20;;;44.90;;
51866;SDS011;52862;52.504;13.480;2024-01-10T02:02:23;135.10;;;44.43;;
51866;SDS011;52862;52.504;13.480;2024-01-10T02:04:50;120.20;;;41.83;;
51866;SDS011;52862;52.504;13.480;2024-01-10T02:07:17;131.97;;;45.97;;
51866;SDS011;52862;52.504;13.480;2024-01-10T02:09:44;143.27;;;45.27;;
51866;SDS011;52862;52.504;13.480;2024-01-10T02:12:11;139.90;;;43.20;;
51866;SDS011;52862;52.504;13.480;2024-01-10T02:14:38;125.70;;;40.43;;
51866;SDS011;52862;52.504;13.480;2024-01-10T02:17:05;128.63;;;41.27;;
51866;SDS011;52862;52.504;13.480;2024-01-10T02:19:32;130.17;;;41.73;;
51866;SDS011;52862;52.504;13.480;2024-01-10T02:22:00;129.23;;;44.17;;
51866;SDS011;52862;52.504;13.480;2024-01-10T02:24:28;125.13;;;44.83;;
51866;SDS011;52862;52.504;13.480;2024-01-10T02:26:55;147.30;;;45.43;;
51866;SDS011;52862;52.504;13.480;2024-01-10T02:29:22;135.40;;;42.77;;
51866;SDS011;52862;52.504;13.480;2024-01-10T02:31:49;145.63;;;44.43;;
51866;SDS011;52862;52.504;13.480;2024-01-10T02:34:16;133.97;;;43.90;;
51866;SDS011;52862;52.504;13.480;2024-01-10T02:36:43;140.87;;;45.43;;
51866;SDS011;52862;52.504;13.480;2024-01-10T02:39:10;130.10;;;44.70;;
51866;SDS011;52862;52.504;13.480;2024-01-10T02:41:37;127.63;;;44.23;;
51866;SDS011;52862;52.504;13.480;2024-01-10T02:44:04;152.60;;;45.83;;
51866;SDS011;52862;52.504;13.480;2024-01-10T02:46:31;134.83;;;45.27;;
51866;SDS011;52862;52.504;13.480;2024-01-10T02:48:58;131.93;;;43.47;;
51866;SDS011;52862;52.504;13.480;2024-01-10T02:51:26;140.80;;;44.80;;
51866;SDS011;52862;52.504;13.480;2024-01-10T02:53:53;126.13;;;39.20;;
51866;SDS011;52862;52.504;13.480;2024-01-10T02:56:20;143.63;;;41.20;;
51866;SDS011;52862;52.504;13.480;2024-01-10T02:58:47;132.03;;;43.47;;
51866;SDS011;52862;52.504;13.480;2024-01-10T03:01:14;150.13;;;44.70;;
51866;SDS011;52862;52.504;13.480;2024-01-10T03:03:41;135.13;;;43.37;;
51866;SDS011;52862;52.504;13.480;2024-01-10T03:06:08;138.87;;;44.40;;
51866;SDS011;52862;52.504;13.480;2024-01-10T03:08:35;135.80;;;43.73;;
51866;SDS011;52862;52.504;13.480;2024-01-10T03:11:02;133.90;;;44.03;;
51866;SDS011;52862;52.504;13.480;2024-01-10T03:13:29;130.20;;;43.27;;
51866;SDS011;52862;52.504;13.480;2024-01-10T03:15:56;131.90;;;43.70;;
51866;SDS011;52862;52.504;13.480;2024-01-10T03:18:24;131.93;;;44.73;;
51866;SDS011;52862;52.504;13.480;2024-01-10T03:20:51;139.83;;;45.07;;
51866;SDS011;52862;52.504;13.480;2024-01-10T03:23:17;120.20;;;40.97;;
51866;SDS011;52862;52.504;13.480;2024-01-10T03:25:44;144.03;;;46.43;;
51866;SDS011;52862;52.504;13.480;2024-01-10T03:28:15;145.03;;;44.53;;
51866;SDS011;52862;52.504;13.480;2024-01-10T03:30:42;152.00;;;46.27;;
51866;SDS011;52862;52.504;13.480;2024-01-10T03:33:09;132.57;;;44.47;;
51866;SDS011;52862;52.504;13.480;2024-01-10T03:35:37;126.23;;;44.37;;
51866;SDS011;52862;52.504;13.480;2024-01-10T03:38:03;151.33;;;45.67;;
51866;SDS011;52862;52.504;13.480;2024-01-10T03:40:30;160.97;;;43.70;;
51866;SDS011;52862;52.504;13.480;2024-01-10T03:42:57;159.57;;;45.33;;
51866;SDS011;52862;52.504;13.480;2024-01-10T03:45:24;136.63;;;44.03;;
51866;SDS011;52862;52.504;13.480;2024-01-10T03:47:50;152.27;;;47.20;;
51866;SDS011;52862;52.504;13.480;2024-01-10T03:50:17;131.90;;;43.63;;
51866;SDS011;52862;52.504;13.480;2024-01-10T03:52:46;137.10;;;46.10;;
51866;SDS011;52862;52.504;13.480;2024-01-10T03:55:13;158.83;;;44.07;;
51866;SDS011;52862;52.504;13.480;2024-01-10T03:57:41;160.13;;;45.37;;
51866;SDS011;52862;52.504;13.480;2024-01-10T04:00:08;147.60;;;43.17;;
51866;SDS011;52862;52.504;13.480;2024-01-10T04:02:36;135.40;;;40.70;;
51866;SDS011;52862;52.504;13.480;2024-01-10T04:05:06;124.67;;;42.10;;
51866;SDS011;52862;52.504;13.480;2024-01-10T04:07:34;147.77;;;45.00;;
51866;SDS011;52862;52.504;13.480;2024-01-10T04:10:01;134.07;;;46.33;;
51866;SDS011;52862;52.504;13.480;2024-01-10T04:12:28;149.97;;;46.37;;
51866;SDS011;52862;52.504;13.480;2024-01-10T04:14:55;135.37;;;41.17;;
51866;SDS011;52862;52.504;13.480;2024-01-10T04:17:22;117.57;;;40.53;;
51866;SDS011;52862;52.504;13.480;2024-01-10T04:19:49;138.40;;;43.73;;
51866;SDS011;52862;52.504;13.480;2024-01-10T04:22:15;133.80;;;42.93;;
51866;SDS011;52862;52.504;13.480;2024-01-10T04:24:42;134.90;;;39.70;;
51866;SDS011;52862;52.504;13.480;2024-01-10T04:27:09;126.47;;;43.10;;
51866;SDS011;52862;52.504;13.480;2024-01-10T04:29:36;135.67;;;40.80;;
51866;SDS011;52862;52.504;13.480;2024-01-10T04:32:03;142.00;;;43.27;;
51866;SDS011;52862;52.504;13.480;2024-01-10T04:34:31;152.20;;;43.93;;
51866;SDS011;52862;52.504;13.480;2024-01-10T04:36:58;138.50;;;41.90;;
51866;SDS011;52862;52.504;13.480;2024-01-10T04:39:25;132.17;;;43.57;;
51866;SDS011;52862;52.504;13.480;2024-01-10T04:41:51;129.43;;;44.23;;
51866;SDS011;52862;52.504;13.480;2024-01-10T04:44:19;145.37;;;42.93;;
51866;SDS011;52862;52.504;13.480;2024-01-10T04:46:46;147.67;;;45.30;;
51866;SDS011;52862;52.504;13.480;2024-01-10T04:49:12;139.73;;;43.10;;
51866;SDS011;52862;52.504;13.480;2024-01-10T04:51:39;133.93;;;41.63;;
51866;SDS011;52862;52.504;13.480;2024-01-10T04:54:06;138.43;;;46.43;;
51866;SDS011;52862;52.504;13.480;2024-01-10T04:56:33;136.47;;;43.27;;
51866;SDS011;52862;52.504;13.480;2024-01-10T04:59:01;131.37;;;44.23;;
51866;SDS011;52862;52.504;13.480;2024-01-10T05:01:29;126.13;;;43.37;;
51866;SDS011;52862;52.504;13.480;2024-01-10T05:03:56;140.83;;;42.57;;
51866;SDS011;52862;52.504;13.480;2024-01-10T05:06:23;132.57;;;44.63;;
51866;SDS011;52862;52.504;13.480;2024-01-10T05:08:50;148.40;;;44.53;;
51866;SDS011;52862;52.504;13.480;2024-01-10T05:11:17;118.73;;;43.53;;
51866;SDS011;52862;52.504;13.480;2024-01-10T05:13:43;140.30;;;43.97;;
51866;SDS011;52862;52.504;13.480;2024-01-10T05:16:10;137.60;;;43.77;;
51866;SDS011;52862;52.504;13.480;2024-01-10T05:18:38;133.47;;;42.27;;
51866;SDS011;52862;52.504;13.480;2024-01-10T05:21:04;136.80;;;43.73;;
51866;SDS011;52862;52.504;13.480;2024-01-10T05:23:31;140.17;;;45.13;;
51866;SDS011;52862;52.504;13.480;2024-01-10T05:25:58;152.13;;;48.07;;
51866;SDS011;52862;52.504;13.480;2024-01-10T05:28:24;134.70;;;45.70;;
51866;SDS011;52862;52.504;13.480;2024-01-10T05:30:51;147.40;;;43.87;;
51866;SDS011;52862;52.504;13.480;2024-01-10T05:33:19;145.03;;;44.27;;
51866;SDS011;52862;52.504;13.480;2024-01-10T05:35:47;159.37;;;44.33;;
51866;SDS011;52862;52.504;13.480;2024-01-10T05:38:13;134.00;;;44.63;;
51866;SDS011;52862;52.504;13.480;2024-01-10T05:40:40;144.10;;;44.50;;
51866;SDS011;52862;52.504;13.480;2024-01-10T05:43:07;146.30;;;44.27;;
51866;SDS011;52862;52.504;13.480;2024-01-10T05:45:36;119.17;;;41.73;;
51866;SDS011;52862;52.504;13.480;2024-01-10T05:48:03;131.07;;;41.00;;
51866;SDS011;52862;52.504;13.480;2024-01-10T05:50:30;153.13;;;47.20;;
51866;SDS011;52862;52.504;13.480;2024-01-10T05:52:58;129.27;;;44.77;;
51866;SDS011;52862;52.504;13.480;2024-01-10T05:55:25;138.33;;;45.30;;
51866;SDS011;52862;52.504;13.480;2024-01-10T05:57:51;160.37;;;47.83;;
51866;SDS011;52862;52.504;13.480;2024-01-10T06:00:18;166.50;;;49.57;;
51866;SDS011;52862;52.504;13.480;2024-01-10T06:02:46;158.43;;;48.23;;
51866;SDS011;52862;52.504;13.480;2024-01-10T06:05:13;160.47;;;49.27;;
51866;SDS011;52862;52.504;13.480;2024-01-10T06:07:40;143.10;;;46.33;;
51866;SDS011;52862;52.504;13.480;2024-01-10T06:10:08;166.40;;;49.77;;
51866;SDS011;52862;52.504;13.480;2024-01-10T06:12:35;145.17;;;47.63;;
51866;SDS011;52862;52.504;13.480;2024-01-10T06:15:02;153.97;;;46.93;;
51866;SDS011;52862;52.504;13.480;2024-01-10T06:17:30;153.10;;;48.17;;
51866;SDS011;52862;52.504;13.480;2024-01-10T06:19:57;151.07;;;47.43;;
51866;SDS011;52862;52.504;13.480;2024-01-10T06:22:25;144.60;;;48.37;;
51866;SDS011;52862;52.504;13.480;2024-01-10T06:24:56;148.70;;;48.50;;
51866;SDS011;52862;52.504;13.480;2024-01-10T06:27:23;139.10;;;46.33;;
51866;SDS011;52862;52.504;13.480;2024-01-10T06:29:50;153.23;;;47.00;;
51866;SDS011;52862;52.504;13.480;2024-01-10T06:32:16;149.87;;;46.80;;
51866;SDS011;52862;52.504;13.480;2024-01-10T06:34:43;154.53;;;47.33;;
51866;SDS011;52862;52.504;13.480;2024-01-10T06:37:10;128.40;;;44.20;;
51866;SDS011;52862;52.504;13.480;2024-01-10T06:39:37;154.63;;;48.60;;
51866;SDS011;52862;52.504;13.480;2024-01-10T06:42:04;160.13;;;48.47;;
51866;SDS011;52862;52.504;13.480;2024-01-10T06:44:34;162.37;;;49.47;;
51866;SDS011;52862;52.504;13.480;2024-01-10T06:47:01;147.47;;;48.33;;
51866;SDS011;52862;52.504;13.480;2024-01-10T06:49:28;149.67;;;45.13;;
51866;SDS011;52862;52.504;13.480;2024-01-10T06:51:55;134.00;;;42.27;;
51866;SDS011;52862;52.504;13.480;2024-01-10T06:54:22;137.27;;;45.37;;
51866;SDS011;52862;52.504;13.480;2024-01-10T06:56:49;154.53;;;51.07;;
51866;SDS011;52862;52.504;13.480;2024-01-10T06:59:15;159.40;;;48.30;;
51866;SDS011;52862;52.504;13.480;2024-01-10T07:01:43;138.50;;;46.67;;
51866;SDS011;52862;52.504;13.480;2024-01-10T07:04:10;140.70;;;46.23;;
51866;SDS011;52862;52.504;13.480;2024-01-10T07:06:37;144.47;;;46.40;;
51866;SDS011;52862;52.504;13.480;2024-01-10T07:09:03;153.90;;;47.03;;
51866;SDS011;52862;52.504;13.480;2024-01-10T07:11:31;134.63;;;44.33;;
51866;SDS011;52862;52.504;13.480;2024-01-10T07:13:58;154.30;;;47.57;;
51866;SDS011;52862;52.504;13.480;2024-01-10T07:16:25;147.57;;;47.30;;
51866;SDS011;52862;52.504;13.480;2024-01-10T07:18:52;150.57;;;47.43;;
51866;SDS011;52862;52.504;13.480;2024-01-10T07:21:19;158.30;;;47.00;;
51866;SDS011;52862;52.504;13.480;2024-01-10T07:23:46;143.43;;;44.30;;
51866;SDS011;52862;52.504;13.480;2024-01-10T07:26:15;136.90;;;42.67;;
51866;SDS011;52862;52.504;13.480;2024-01-10T07:28:42;163.33;;;50.67;;
51866;SDS011;52862;52.504;13.480;2024-01-10T07:31:11;177.03;;;51.60;;
51866;SDS011;52862;52.504;13.480;2024-01-10T07:33:38;150.73;;;48.83;;
51866;SDS011;52862;52.504;13.480;2024-01-10T07:36:05;147.03;;;45.80;;
51866;SDS011;52862;52.504;13.480;2024-01-10T07:38:33;155.40;;;48.60;;
51866;SDS011;52862;52.504;13.480;2024-01-10T07:40:59;154.70;;;46.23;;
51866;SDS011;52862;52.504;13.480;2024-01-10T07:43:26;170.00;;;48.83;;
51866;SDS011;52862;52.504;13.480;2024-01-10T07:45:53;158.33;;;44.37;;
51866;SDS011;52862;52.504;13.480;2024-01-10T07:48:20;147.47;;;45.93;;
51866;SDS011;52862;52.504;13.480;2024-01-10T07:50:47;149.67;;;46.33;;
51866;SDS011;52862;52.504;13.480;2024-01-10T07:53:14;156.10;;;46.77;;
51866;SDS011;52862;52.504;13.480;2024-01-10T07:55:41;148.93;;;46.40;;
51866;SDS011;52862;52.504;13.480;2024-01-10T07:58:08;149.43;;;43.33;;
51866;SDS011;52862;52.504;13.480;2024-01-10T08:00:35;149.63;;;48.17;;
51866;SDS011;52862;52.504;13.480;2024-01-10T08:03:02;158.27;;;45.27;;
51866;SDS011;52862;52.504;13.480;2024-01-10T08:05:29;142.73;;;47.37;;
51866;SDS011;52862;52.504;13.480;2024-01-10T08:07:56;142.83;;;47.30;;
51866;SDS011;52862;52.504;13.480;2024-01-10T08:10:24;147.00;;;47.47;;
51866;SDS011;52862;52.504;13.480;2024-01-10T08:12:53;172.07;;;48.97;;
51866;SDS011;52862;52.504;13.480;2024-01-10T08:15:19;141.33;;;47.70;;
51866;SDS011;52862;52.504;13.480;2024-01-10T08:17:46;147.10;;;49.93;;
51866;SDS011;52862;52.504;13.480;2024-01-10T08:20:13;146.40;;;46.53;;
51866;SDS011;52862;52.504;13.480;2024-01-10T08:22:45;150.33;;;49.43;;
51866;SDS011;52862;52.504;13.480;2024-01-10T08:25:11;153.40;;;50.33;;
51866;SDS011;52862;52.504;13.480;2024-01-10T08:27:41;152.47;;;47.63;;
51866;SDS011;52862;52.504;13.480;2024-01-10T08:30:11;169.57;;;50.83;;
51866;SDS011;52862;52.504;13.480;2024-01-10T08:32:38;154.60;;;47.60;;
51866;SDS011;52862;52.504;13.480;2024-01-10T08:35:05;150.10;;;47.60;;
51866;SDS011;52862;52.504;13.480;2024-01-10T08:37:34;173.90;;;49.13;;
51866;SDS011;52862;52.504;13.480;2024-01-10T08:40:01;159.37;;;50.27;;
51866;SDS011;52862;52.504;13.480;2024-01-10T08:42:33;155.67;;;49.23;;
51866;SDS011;52862;52.504;13.480;2024-01-10T08:45:00;145.40;;;50.43;;
51866;SDS011;52862;52.504;13.480;2024-01-10T08:47:27;143.83;;;49.50;;
51866;SDS011;52862;52.504;13.480;2024-01-10T08:49:57;155.33;;;46.63;;
51866;SDS011;52862;52.504;13.480;2024-01-10T08:52:24;142.77;;;47.07;;
51866;SDS011;52862;52.504;13.480;2024-01-10T08:54:50;146.53;;;47.37;;
51866;SDS011;52862;52.504;13.480;2024-01-10T08:57:17;145.20;;;47.43;;
51866;SDS011;52862;52.504;13.480;2024-01-10T08:59:44;153.63;;;48.70;;
51866;SDS011;52862;52.504;13.480;2024-01-10T09:02:12;147.47;;;50.30;;
51866;SDS011;52862;52.504;13.480;2024-01-10T09:04:39;169.93;;;50.17;;
51866;SDS011;52862;52.504;13.480;2024-01-10T09:07:07;151.73;;;49.30;;
51866;SDS011;52862;52.504;13.480;2024-01-10T09:09:35;152.03;;;49.47;;
51866;SDS011;52862;52.504;13.480;2024-01-10T09:12:01;164.00;;;50.67;;
51866;SDS011;52862;52.504;13.480;2024-01-10T09:14:29;156.37;;;49.10;;
51866;SDS011;52862;52.504;13.480;2024-01-10T09:16:56;147.50;;;46.83;;
51866;SDS011;52862;52.504;13.480;2024-01-10T09:19:25;137.73;;;48.50;;
51866;SDS011;52862;52.504;13.480;2024-01-10T09:21:51;149.73;;;47.67;;
51866;SDS011;52862;52.504;13.480;2024-01-10T09:24:18;132.47;;;47.97;;
51866;SDS011;52862;52.504;13.480;2024-01-10T09:26:54;159.13;;;49.63;;
51866;SDS011;52862;52.504;13.480;2024-01-10T09:29:23;146.27;;;49.77;;
51866;SDS011;52862;52.504;13.480;2024-01-10T09:31:51;140.33;;;46.97;;
51866;SDS011;52862;52.504;13.480;2024-01-10T09:34:18;140.50;;;47.97;;
51866;SDS011;52862;52.504;13.480;2024-01-10T09:36:45;135.07;;;45.23;;
51866;SDS011;52862;52.504;13.480;2024-01-10T09:39:13;139.97;;;47.33;;
51866;SDS011;52862;52.504;13.480;2024-01-10T09:41:42;140.73;;;45.23;;
51866;SDS011;52862;52.504;13.480;2024-01-10T09:44:13;135.83;;;44.00;;
51866;SDS011;52862;52.504;13.480;2024-01-10T09:46:40;144.63;;;42.07;;
51866;SDS011;52862;52.504;13.480;2024-01-10T09:49:12;157.40;;;47.07;;
51866;SDS011;52862;52.504;13.480;2024-01-10T09:51:39;128.63;;;42.80;;
51866;SDS011;52862;52.504;13.480;2024-01-10T09:54:07;134.37;;;43.37;;
51866;SDS011;52862;52.504;13.480;2024-01-10T09:56:34;139.83;;;45.37;;
51866;SDS011;52862;52.504;13.480;2024-01-10T09:59:01;147.50;;;43.37;;
51866;SDS011;52862;52.504;13.480;2024-01-10T10:01:30;141.37;;;44.93;;
51866;SDS011;52862;52.504;13.480;2024-01-10T10:03:57;150.43;;;47.43;;
51866;SDS011;52862;52.504;13.480;2024-01-10T10:06:24;138.23;;;46.93;;
51866;SDS011;52862;52.504;13.480;2024-01-10T10:08:51;140.77;;;46.57;;
51866;SDS011;52862;52.504;13.480;2024-01-10T10:11:19;149.20;;;46.00;;
51866;SDS011;52862;52.504;13.480;2024-01-10T10:13:46;147.03;;;46.90;;
51866;SDS011;52862;52.504;13.480;2024-01-10T10:16:13;131.53;;;46.53;;
51866;SDS011;52862;52.504;13.480;2024-01-10T10:18:48;145.13;;;46.47;;
51866;SDS011;52862;52.504;13.480;2024-01-10T10:21:17;131.43;;;44.00;;
51866;SDS011;52862;52.504;13.480;2024-01-10T10:23:57;128.53;;;43.33;;
51866;SDS011;52862;52.504;13.480;2024-01-10T10:26:26;140.47;;;43.27;;
51866;SDS011;52862;52.504;13.480;2024-01-10T10:28:55;123.10;;;44.13;;
51866;SDS011;52862;52.504;13.480;2024-01-10T10:31:22;131.20;;;44.37;;
51866;SDS011;52862;52.504;13.480;2024-01-10T10:33:49;129.50;;;43.90;;
51866;SDS011;52862;52.504;13.480;2024-01-10T10:36:17;133.90;;;43.17;;
51866;SDS011;52862;52.504;13.480;2024-01-10T10:38:46;118.37;;;42.10;;
51866;SDS011;52862;52.504;13.480;2024-01-10T10:41:14;131.30;;;41.93;;
51866;SDS011;52862;52.504;13.480;2024-01-10T10:43:41;135.87;;;43.00;;
51866;SDS011;52862;52.504;13.480;2024-01-10T10:46:09;116.87;;;40.13;;
51866;SDS011;52862;52.504;13.480;2024-01-10T10:48:38;105.73;;;38.57;;
51866;SDS011;52862;52.504;13.480;2024-01-10T10:51:05;126.43;;;41.40;;
51866;SDS011;52862;52.504;13.480;2024-01-10T10:53:34;124.63;;;38.03;;
51866;SDS011;52862;52.504;13.480;2024-01-10T10:56:03;111.53;;;38.67;;
51866;SDS011;52862;52.504;13.480;2024-01-10T10:58:31;103.53;;;36.53;;
51866;SDS011;52862;52.504;13.480;2024-01-10T11:01:01;101.20;;;33.73;;
51866;SDS011;52862;52.504;13.480;2024-01-10T11:03:31;106.77;;;36.43;;
51866;SDS011;52862;52.504;13.480;2024-01-10T11:06:01;103.67;;;34.10;;
51866;SDS011;52862;52.504;13.480;2024-01-10T11:08:29;98.03;;;34.23;;
51866;SDS011;52862;52.504;13.480;2024-01-10T11:11:00;97.43;;;35.30;;
51866;SDS011;52862;52.504;13.480;2024-01-10T11:13:33;103.03;;;35.80;;
51866;SDS011;52862;52.504;13.480;2024-01-10T11:16:24;100.30;;;33.90;;
51866;SDS011;52862;52.504;13.480;2024-01-10T11:19:18;100.97;;;32.00;;
51866;SDS011;52862;52.504;13.480;2024-01-10T11:22:06;91.10;;;32.07;;
51866;SDS011;52862;52.504;13.480;2024-01-10T11:24:42;99.80;;;33.57;;
51866;SDS011;52862;52.504;13.480;2024-01-10T11:27:10;83.57;;;31.27;;
51866;SDS011;52862;52.504;13.480;2024-01-10T11:29:38;84.33;;;29.47;;
51866;SDS011;52862;52.504;13.480;2024-01-10T11:32:06;85.50;;;29.17;;
51866;SDS011;52862;52.504;13.480;2024-01-10T11:34:35;96.40;;;29.80;;
51866;SDS011;52862;52.504;13.480;2024-01-10T11:37:11;84.10;;;30.03;;
51866;SDS011;52862;52.504;13.480;2024-01-10T11:39:40;87.77;;;29.80;;
51866;SDS011;52862;52.504;13.480;2024-01-10T11:42:09;90.90;;;31.37;;
51866;SDS011;52862;52.504;13.480;2024-01-10T11:44:46;94.30;;;31.17;;
51866;SDS011;52862;52.504;13.480;2024-01-10T11:47:15;95.43;;;32.40;;
51866;SDS011;52862;52.504;13.480;2024-01-10T11:49:53;92.00;;;33.00;;
51866;SDS011;52862;52.504;13.480;2024-01-10T11:52:21;99.13;;;33.07;;
51866;SDS011;52862;52.504;13.480;2024-01-10T11:54:48;82.17;;;28.97;;
51866;SDS011;52862;52.504;13.480;2024-01-10T11:57:19;75.23;;;28.63;;
51866;SDS011;52862;52.504;13.480;2024-01-10T11:59:47;81.63;;;27.47;;
51866;SDS011;52862;52.504;13.480;2024-01-10T12:02:18;75.73;;;27.97;;
51866;SDS011;52862;52.504;13.480;2024-01-10T12:04:46;102.50;;;28.90;;
51866;SDS011;52862;52.504;13.480;2024-01-10T12:07:14;81.17;;;28.33;;
51866;SDS011;52862;52.504;13.480;2024-01-10T12:09:42;80.90;;;28.47;;
51866;SDS011;52862;52.504;13.480;2024-01-10T12:12:09;95.97;;;31.03;;
51866;SDS011;52862;52.504;13.480;2024-01-10T12:14:37;70.30;;;28.43;;
51866;SDS011;52862;52.504;13.480;2024-01-10T12:17:04;72.00;;;24.73;;
51866;SDS011;52862;52.504;13.480;2024-01-10T12:19:34;78.80;;;27.07;;
51866;SDS011;52862;52.504;13.480;2024-01-10T12:22:01;91.70;;;28.80;;
51866;SDS011;52862;52.504;13.480;2024-01-10T12:24:31;70.30;;;27.40;;
51866;SDS011;52862;52.504;13.480;2024-01-10T12:26:58;77.20;;;28.07;;
51866;SDS011;52862;52.504;13.480;2024-01-10T12:29:25;83.77;;;30.40;;
51866;SDS011;52862;52.504;13.480;2024-01-10T12:31:52;83.87;;;29.13;;
51866;SDS011;52862;52.504;13.480;2024-01-10T12:34:19;94.27;;;30.60;;
51866;SDS011;52862;52.504;13.480;2024-01-10T12:36:48;95.60;;;30.53;;
51866;SDS011;52862;52.504;13.480;2024-01-10T12:39:15;87.37;;;30.53;;
51866;SDS011;52862;52.504;13.480;2024-01-10T12:41:42;100.40;;;30.67;;
51866;SDS011;52862;52.504;13.480;2024-01-10T12:44:10;86.27;;;31.03;;
51866;SDS011;52862;52.504;13.480;2024-01-10T12:46:48;89.93;;;31.53;;
51866;SDS011;52862;52.504;13.480;2024-01-10T12:49:16;94.43;;;30.90;;
51866;SDS011;52862;52.504;13.480;2024-01-10T12:51:43;94.10;;;30.23;;
51866;SDS011;52862;52.504;13.480;2024-01-10T12:54:11;97.33;;;32.40;;
51866;SDS011;52862;52.504;13.480;2024-01-10T12:56:38;104.13;;;31.90;;
51866;SDS011;52862;52.504;13.480;2024-01-10T12:59:04;98.87;;;33.20;;
51866;SDS011;52862;52.504;13.480;2024-01-10T13:01:31;89.47;;;31.07;;
51866;SDS011;52862;52.504;13.480;2024-01-10T13:03:58;93.17;;;32.70;;
51866;SDS011;52862;52.504;13.480;2024-01-10T13:06:25;93.03;;;31.70;;
51866;SDS011;52862;52.504;13.480;2024-01-10T13:08:51;108.80;;;32.17;;
51866;SDS011;52862;52.504;13.480;2024-01-10T13:11:21;97.80;;;31.73;;
51866;SDS011;52862;52.504;13.480;2024-01-10T13:13:48;82.63;;;30.40;;
51866;SDS011;52862;52.504;13.480;2024-01-10T13:16:15;108.20;;;32.87;;
51866;SDS011;52862;52.504;13.480;2024-01-10T13:18:42;90.73;;;32.73;;
51866;SDS011;52862;52.504;13.480;2024-01-10T13:21:09;104.07;;;34.83;;
51866;SDS011;52862;52.504;13.480;2024-01-10T13:23:36;83.10;;;30.27;;
51866;SDS011;52862;52.504;13.480;2024-01-10T13:26:03;83.10;;;33.87;;
51866;SDS011;52862;52.504;13.480;2024-01-10T13:28:31;92.27;;;31.60;;
51866;SDS011;52862;52.504;13.480;2024-01-10T13:30:57;83.80;;;30.97;;
51866;SDS011;52862;52.504;13.480;2024-01-10T13:33:24;96.87;;;32.50;;
51866;SDS011;52862;52.504;13.480;2024-01-10T13:35:52;91.47;;;30.37;;
51866;SDS011;52862;52.504;13.480;2024-01-10T13:38:18;92.27;;;31.93;;
51866;SDS011;52862;52.504;13.480;2024-01-10T13:40:45;84.00;;;31.77;;
51866;SDS011;52862;52.504;13.480;2024-01-10T13:43:12;81.40;;;29.90;;
51866;SDS011;52862;52.504;13.480;2024-01-10T13:45:41;83.60;;;29.93;;
51866;SDS011;52862;52.504;13.480;2024-01-10T13:48:08;91.30;;;28.90;;
51866;SDS011;52862;52.504;13.480;2024-01-10T13:50:36;88.07;;;31.20;;
51866;SDS011;52862;52.504;13.480;2024-01-10T13:53:03;88.33;;;31.50;;
51866;SDS011;52862;52.504;13.480;2024-01-10T13:55:30;77.83;;;29.80;;
51866;SDS011;52862;52.504;13.480;2024-01-10T13:57:57;86.63;;;32.10;;
51866;SDS011;52862;52.504;13.480;2024-01-10T14:00:24;93.03;;;32.50;;
51866;SDS011;52862;52.504;13.480;2024-01-10T14:02:52;79.90;;;29.77;;